createdAt,value
2018-06-17T00:01:17.122Z,87.80
2018-06-17T00:03:46.466Z,88.93
2018-06-17T00:06:16.029Z,87.37
2018-06-17T00:08:45.704Z,88.02
2018-06-17T00:11:15.189Z,88.79
2018-06-17T00:13:44.742Z,88.33
2018-06-17T00:16:14.364Z,88.71
2018-06-17T00:18:43.665Z,89.22
2018-06-17T00:21:13.275Z,88.22
2018-06-17T00:23:42.353Z,88.71
2018-06-17T00:26:11.420Z,89.35
2018-06-17T00:28:40.436Z,89.04
2018-06-17T00:31:09.537Z,88.89
2018-06-17T00:33:38.672Z,88.28
2018-06-17T00:36:07.751Z,88.58
2018-06-17T00:38:36.885Z,88.92
2018-06-17T00:41:06.371Z,88.50
2018-06-17T00:43:35.489Z,88.79
2018-06-17T00:46:04.490Z,89.24
2018-06-17T00:48:33.538Z,89.48
2018-06-17T00:51:03.343Z,88.95
2018-06-17T00:53:32.709Z,88.70
2018-06-17T00:56:02.135Z,88.17
2018-06-17T00:58:31.535Z,88.62
2018-06-17T01:01:00.781Z,89.90
2018-06-17T01:03:33.195Z,89.33
2018-06-17T01:06:03.798Z,89.37
2018-06-17T01:08:33.843Z,89.08
2018-06-17T01:11:04.162Z,88.95
2018-06-17T01:13:33.566Z,89.11
2018-06-17T01:16:03.085Z,88.84
2018-06-17T01:18:33.807Z,89.31
2018-06-17T01:21:03.098Z,88.47
2018-06-17T01:23:32.447Z,88.57
2018-06-17T01:26:06.694Z,89.42
2018-06-17T01:28:37.758Z,89.39
2018-06-17T01:31:07.221Z,88.98
2018-06-17T01:33:36.546Z,89.22
2018-06-17T01:36:06.814Z,89.83
2018-06-17T01:38:36.107Z,89.40
2018-06-17T01:41:06.423Z,88.57
2018-06-17T01:43:35.735Z,89.74
2018-06-17T01:46:05.698Z,89.79
2018-06-17T01:48:35.076Z,89.75
2018-06-17T01:51:04.437Z,90.06
2018-06-17T01:53:34.804Z,89.46
2018-06-17T01:56:04.954Z,89.82
2018-06-17T01:58:35.162Z,88.96
2018-06-17T02:01:04.439Z,89.03
2018-06-17T02:03:39.530Z,88.94
2018-06-17T02:06:14.095Z,88.40
2018-06-17T02:08:48.511Z,88.00
2018-06-17T02:11:23.016Z,88.23
2018-06-17T02:13:52.527Z,87.63
2018-06-17T02:16:21.965Z,88.50
2018-06-17T02:18:53.838Z,87.93
2018-06-17T02:21:23.124Z,88.25
2018-06-17T02:23:52.617Z,89.13
2018-06-17T02:26:21.937Z,89.62
2018-06-17T02:28:51.348Z,89.20
2018-06-17T02:31:20.765Z,89.14
2018-06-17T02:33:50.213Z,89.86
2018-06-17T02:36:19.832Z,90.48
2018-06-17T02:38:49.122Z,90.03
2018-06-17T02:41:18.468Z,90.28
2018-06-17T02:43:47.914Z,90.38
2018-06-17T02:46:22.502Z,89.21
2018-06-17T02:48:56.992Z,89.70
2018-06-17T02:51:31.475Z,89.19
2018-06-17T02:54:05.921Z,89.30
2018-06-17T02:56:35.318Z,89.70
2018-06-17T02:59:04.617Z,90.09
2018-06-17T03:01:33.681Z,89.85
2018-06-17T03:04:03.017Z,90.23
2018-06-17T03:06:32.510Z,90.18
2018-06-17T03:09:01.996Z,89.76
2018-06-17T03:11:31.349Z,90.81
2018-06-17T03:14:00.802Z,90.72
2018-06-17T03:16:30.318Z,91.60
2018-06-17T03:18:59.718Z,90.99
2018-06-17T03:21:29.158Z,91.27
2018-06-17T03:23:58.616Z,90.59
2018-06-17T03:26:32.984Z,90.38
2018-06-17T03:29:07.577Z,89.99
2018-06-17T03:31:41.884Z,90.56
2018-06-17T03:34:11.213Z,90.39
2018-06-17T03:36:40.687Z,89.29
2018-06-17T03:39:10.486Z,89.93
2018-06-17T03:41:39.904Z,90.15
2018-06-17T03:44:09.328Z,89.80
2018-06-17T03:46:38.623Z,89.65
2018-06-17T03:49:08.120Z,89.84
2018-06-17T03:51:37.429Z,90.07
2018-06-17T03:54:06.727Z,90.80
2018-06-17T03:56:36.603Z,90.83
2018-06-17T03:59:05.821Z,89.98
2018-06-17T04:01:35.432Z,90.38
2018-06-17T04:04:05.146Z,90.70
2018-06-17T04:06:34.603Z,90.06
2018-06-17T04:09:04.876Z,90.33
2018-06-17T04:11:34.406Z,90.08
2018-06-17T04:14:03.792Z,90.62
2018-06-17T04:16:33.409Z,90.40
2018-06-17T04:19:02.711Z,91.59
2018-06-17T04:21:32.092Z,89.54
2018-06-17T04:24:01.253Z,89.92
2018-06-17T04:26:30.614Z,88.47
2018-06-17T04:28:59.918Z,88.67
2018-06-17T04:31:29.292Z,87.85
2018-06-17T04:33:59.006Z,88.75
2018-06-17T04:36:28.390Z,88.19
2018-06-17T04:38:57.751Z,88.87
2018-06-17T04:41:27.144Z,88.16
2018-06-17T04:43:56.551Z,88.81
2018-06-17T04:46:25.856Z,88.46
2018-06-17T04:48:54.968Z,88.84
2018-06-17T04:51:24.328Z,88.38
2018-06-17T04:53:53.811Z,88.37
2018-06-17T04:56:23.343Z,87.56
2018-06-17T04:58:52.808Z,86.36
2018-06-17T05:01:22.014Z,87.03
2018-06-17T05:03:51.530Z,85.55
2018-06-17T05:06:21.287Z,84.69
2018-06-17T05:08:50.656Z,83.85
2018-06-17T05:11:20.023Z,84.00
2018-06-17T05:13:49.310Z,84.31
2018-06-17T05:16:19.212Z,84.46
2018-06-17T05:18:48.797Z,83.55
2018-06-17T05:21:18.197Z,83.77
2018-06-17T05:23:48.623Z,84.05
2018-06-17T05:26:18.877Z,83.91
2018-06-17T05:28:48.361Z,84.21
2018-06-17T05:31:17.695Z,84.03
2018-06-17T05:33:47.163Z,83.58
2018-06-17T05:36:16.616Z,83.26
2018-06-17T05:38:47.433Z,82.16
2018-06-17T05:41:16.734Z,83.27
2018-06-17T05:43:46.313Z,82.30
2018-06-17T05:46:15.825Z,83.15
2018-06-17T05:48:45.604Z,83.00
2018-06-17T05:51:15.378Z,80.68
2018-06-17T05:53:44.610Z,81.78
2018-06-17T05:56:14.146Z,82.28
2018-06-17T05:58:43.656Z,80.86
2018-06-17T06:01:13.149Z,80.33
2018-06-17T06:03:42.618Z,81.29
2018-06-17T06:06:12.242Z,80.49
2018-06-17T06:08:42.567Z,79.93
2018-06-17T06:11:12.259Z,77.63
2018-06-17T06:13:41.628Z,80.40
2018-06-17T06:16:10.923Z,80.54
2018-06-17T06:18:40.461Z,79.63
2018-06-17T06:21:10.243Z,78.88
2018-06-17T06:23:39.948Z,78.88
2018-06-17T06:26:08.981Z,78.88
2018-06-17T06:28:39.494Z,79.20
2018-06-17T06:31:10.220Z,78.87
2018-06-17T06:33:39.694Z,79.52
2018-06-17T06:36:09.440Z,78.93
2018-06-17T06:38:39.304Z,77.75
2018-06-17T06:41:08.780Z,78.53
2018-06-17T06:43:39.420Z,77.93
2018-06-17T06:46:09.362Z,78.62
2018-06-17T06:48:38.882Z,78.00
2018-06-17T06:51:08.994Z,78.63
2018-06-17T06:53:38.596Z,76.59
2018-06-17T06:56:08.041Z,77.95
2018-06-17T06:58:38.075Z,76.60
2018-06-17T07:01:08.054Z,74.87
2018-06-17T07:03:48.248Z,76.19
2018-06-17T07:06:27.964Z,76.33
2018-06-17T07:10:08.621Z,77.91
2018-06-17T07:12:38.288Z,76.50
2018-06-17T07:15:07.619Z,76.33
2018-06-17T07:18:46.161Z,75.52
2018-06-17T07:21:15.511Z,77.24
2018-06-17T07:23:45.658Z,75.85
2018-06-17T07:26:29.762Z,75.60
2018-06-17T07:29:10.077Z,75.04
2018-06-17T07:31:41.722Z,73.83
2018-06-17T07:34:11.877Z,71.36
2018-06-17T07:36:42.268Z,74.22
2018-06-17T07:40:25.025Z,73.33
2018-06-17T07:42:55.223Z,73.12
2018-06-17T07:45:24.690Z,73.37
2018-06-17T07:47:54.191Z,73.95
2018-06-17T07:50:34.571Z,72.59
2018-06-17T07:53:15.876Z,71.86
2018-06-17T07:55:46.464Z,72.28
2018-06-17T07:58:17.365Z,71.76
2018-06-17T08:00:48.108Z,71.72
2018-06-17T08:05:57.508Z,71.58
2018-06-17T08:08:26.728Z,69.77
2018-06-17T08:10:56.509Z,69.69
2018-06-17T08:13:26.403Z,68.93
2018-06-17T08:15:56.217Z,68.53
2018-06-17T08:18:28.409Z,66.95
2018-06-17T08:20:57.848Z,68.40
2018-06-17T08:23:27.814Z,67.73
2018-06-17T08:25:57.055Z,67.11
2018-06-17T08:28:28.919Z,68.01
2018-06-17T08:30:59.545Z,67.72
2018-06-17T08:33:29.285Z,67.13
2018-06-17T08:35:58.711Z,63.12
2018-06-17T08:38:28.145Z,65.10
2018-06-17T08:40:57.613Z,65.51
2018-06-17T08:43:27.774Z,64.06
2018-06-17T08:45:58.795Z,62.24
2018-06-17T08:48:30.765Z,64.63
2018-06-17T08:51:00.310Z,62.16
2018-06-17T08:53:30.252Z,61.07
2018-06-17T08:56:00.717Z,60.49
2018-06-17T08:58:30.145Z,59.60
2018-06-17T09:00:59.753Z,59.14
2018-06-17T09:03:29.397Z,61.59
2018-06-17T09:05:59.817Z,61.83
2018-06-17T09:08:29.726Z,59.28
2018-06-17T09:11:00.480Z,58.19
2018-06-17T09:13:30.978Z,58.84
2018-06-17T09:16:00.468Z,59.39
2018-06-17T09:18:31.043Z,56.21
2018-06-17T09:21:00.555Z,56.37
2018-06-17T09:23:30.067Z,54.15
2018-06-17T09:25:59.545Z,55.00
2018-06-17T09:28:30.390Z,55.38
2018-06-17T09:30:59.919Z,53.56
2018-06-17T09:33:30.325Z,54.77
2018-06-17T09:35:59.785Z,56.86
2018-06-17T09:38:29.107Z,59.64
2018-06-17T09:40:59.153Z,58.27
2018-06-17T09:43:28.766Z,58.05
2018-06-17T09:45:58.545Z,57.30
2018-06-17T09:48:30.878Z,58.62
2018-06-17T09:51:01.475Z,58.52
2018-06-17T09:53:30.994Z,60.50
2018-06-17T09:56:00.415Z,60.32
2018-06-17T09:58:30.987Z,59.22
2018-06-17T10:01:00.184Z,61.58
2018-06-17T10:03:29.549Z,60.65
2018-06-17T10:05:58.863Z,61.60
2018-06-17T10:08:28.316Z,59.74
2018-06-17T10:10:59.642Z,60.97
2018-06-17T10:13:31.154Z,60.92
2018-06-17T10:16:00.611Z,60.62
2018-06-17T10:18:31.089Z,60.00
2018-06-17T10:21:00.544Z,58.95
2018-06-17T10:23:30.388Z,58.91
2018-06-17T10:25:59.735Z,60.39
2018-06-17T10:28:31.139Z,59.74
2018-06-17T10:31:02.709Z,60.42
2018-06-17T10:33:33.658Z,59.62
2018-06-17T10:36:03.424Z,61.44
2018-06-17T10:38:34.260Z,60.07
2018-06-17T10:41:04.560Z,60.55
2018-06-17T10:43:34.763Z,61.14
2018-06-17T10:46:05.084Z,62.62
2018-06-17T10:48:35.408Z,62.20
2018-06-17T10:51:04.815Z,59.44
2018-06-17T10:53:34.439Z,62.44
2018-06-17T10:56:04.017Z,64.77
2018-06-17T10:58:33.465Z,63.88
2018-06-17T11:01:02.882Z,62.03
2018-06-17T11:03:32.818Z,60.29
2018-06-17T11:06:02.250Z,58.98
2018-06-17T11:08:33.855Z,61.19
2018-06-17T11:11:04.202Z,59.42
2018-06-17T11:13:33.660Z,59.63
2018-06-17T11:16:03.961Z,59.39
2018-06-17T11:18:33.781Z,60.35
2018-06-17T11:21:03.928Z,61.79
2018-06-17T11:23:34.595Z,58.84
2018-06-17T11:26:07.416Z,59.33
2018-06-17T11:28:38.223Z,59.71
2018-06-17T11:31:09.875Z,59.70
2018-06-17T11:33:39.781Z,58.86
2018-06-17T11:36:10.906Z,58.83
2018-06-17T11:38:40.825Z,56.23
2018-06-17T11:41:10.463Z,57.83
2018-06-17T11:43:40.895Z,56.78
2018-06-17T11:46:11.316Z,55.17
2018-06-17T11:48:41.973Z,54.49
2018-06-17T11:51:12.463Z,53.42
2018-06-17T11:53:41.841Z,55.37
2018-06-17T11:56:11.626Z,55.67
2018-06-17T11:58:42.124Z,54.82
2018-06-17T12:01:16.964Z,53.39
2018-06-17T12:03:47.345Z,54.04
2018-06-17T12:06:17.749Z,53.90
2018-06-17T12:08:49.859Z,52.36
2018-06-17T12:11:19.960Z,52.94
2018-06-17T12:13:49.631Z,52.13
2018-06-17T12:16:21.723Z,51.89
2018-06-17T12:18:52.274Z,51.67
2018-06-17T12:21:22.199Z,51.33
2018-06-17T12:23:52.929Z,51.63
2018-06-17T12:26:23.564Z,51.57
2018-06-17T12:28:54.556Z,51.92
2018-06-17T12:31:24.163Z,50.49
2018-06-17T12:33:53.958Z,50.83
2018-06-17T12:36:23.425Z,51.22
2018-06-17T12:38:53.401Z,51.29
2018-06-17T12:41:24.632Z,49.62
2018-06-17T12:43:53.896Z,52.38
2018-06-17T12:46:23.289Z,51.61
2018-06-17T12:48:52.642Z,49.25
2018-06-17T12:51:23.131Z,50.22
2018-06-17T12:53:52.502Z,50.65
2018-06-17T12:56:22.264Z,48.30
2018-06-17T12:58:51.969Z,50.97
2018-06-17T13:01:22.507Z,50.88
2018-06-17T13:03:52.093Z,50.80
2018-06-17T13:06:21.953Z,49.02
2018-06-17T13:08:52.122Z,48.84
2018-06-17T13:11:21.550Z,49.18
2018-06-17T13:13:51.214Z,44.98
2018-06-17T13:16:20.622Z,46.49
2018-06-17T13:18:50.063Z,48.08
2018-06-17T13:21:20.608Z,46.83
2018-06-17T13:23:50.912Z,49.29
2018-06-17T13:26:21.238Z,51.08
2018-06-17T13:28:50.472Z,54.29
2018-06-17T13:31:19.923Z,52.42
2018-06-17T13:33:49.563Z,50.17
2018-06-17T13:36:19.904Z,48.45
2018-06-17T13:38:49.687Z,48.13
2018-06-17T13:41:19.170Z,47.17
2018-06-17T13:43:48.536Z,52.93
2018-06-17T13:46:18.032Z,53.56
2018-06-17T13:48:49.028Z,55.15
2018-06-17T13:51:18.312Z,55.10
2018-06-17T13:53:47.800Z,57.53
2018-06-17T13:56:17.235Z,57.66
2018-06-17T13:58:46.704Z,58.57
2018-06-17T14:01:17.707Z,57.28
2018-06-17T14:03:47.031Z,58.87
2018-06-17T14:06:16.428Z,57.92
2018-06-17T14:08:47.069Z,58.72
2018-06-17T14:11:16.466Z,58.22
2018-06-17T14:13:45.997Z,58.58
2018-06-17T14:16:15.425Z,58.73
2018-06-17T14:18:44.747Z,57.28
2018-06-17T14:21:15.596Z,57.19
2018-06-17T14:23:45.218Z,58.75
2018-06-17T14:26:15.217Z,58.32
2018-06-17T14:28:44.915Z,61.57
2018-06-17T14:31:14.783Z,61.86
2018-06-17T14:33:45.562Z,60.02
2018-06-17T14:36:16.239Z,53.77
2018-06-17T14:38:46.386Z,50.79
2018-06-17T14:41:19.670Z,46.25
2018-06-17T14:43:54.100Z,45.55
2018-06-17T14:46:29.264Z,47.70
2018-06-17T14:49:03.777Z,46.34
2018-06-17T14:51:38.198Z,45.90
2018-06-17T14:54:08.680Z,47.36
2018-06-17T14:56:38.665Z,47.25
2018-06-17T14:59:08.041Z,46.59
2018-06-17T15:01:37.558Z,47.38
2018-06-17T15:04:07.607Z,44.59
2018-06-17T15:06:36.948Z,44.42
2018-06-17T15:09:08.678Z,46.36
2018-06-17T15:11:39.177Z,47.08
2018-06-17T15:14:09.407Z,48.25
2018-06-17T15:16:40.638Z,48.63
2018-06-17T15:19:10.084Z,48.44
2018-06-17T15:21:39.536Z,50.20
2018-06-17T15:24:08.951Z,50.32
2018-06-17T15:26:38.339Z,51.57
2018-06-17T15:29:08.554Z,53.51
2018-06-17T15:31:44.280Z,52.24
2018-06-17T15:34:18.556Z,47.96
2018-06-17T15:36:55.394Z,50.42
2018-06-17T15:39:29.937Z,50.46
2018-06-17T15:42:01.129Z,46.42
2018-06-17T15:44:30.454Z,47.37
2018-06-17T15:47:00.759Z,45.00
2018-06-17T15:49:30.623Z,43.88
2018-06-17T15:52:00.679Z,43.67
2018-06-17T15:54:30.273Z,44.26
2018-06-17T15:56:59.630Z,46.43
2018-06-17T15:59:29.051Z,46.46
2018-06-17T16:01:59.212Z,44.98
2018-06-17T16:04:28.442Z,43.39
2018-06-17T16:06:58.486Z,47.10
2018-06-17T16:09:28.897Z,47.06
2018-06-17T16:12:03.420Z,46.49
2018-06-17T16:14:38.621Z,46.22
2018-06-17T16:17:12.888Z,46.18
2018-06-17T16:19:47.336Z,45.95
2018-06-17T16:22:16.997Z,46.63
2018-06-17T16:24:46.383Z,46.46
2018-06-17T16:27:19.035Z,44.57
2018-06-17T16:29:49.356Z,47.21
2018-06-17T16:32:20.151Z,47.04
2018-06-17T16:34:50.353Z,47.17
2018-06-17T16:37:19.910Z,49.64
2018-06-17T16:39:50.459Z,50.47
2018-06-17T16:42:19.933Z,51.08
2018-06-17T16:44:49.479Z,50.96
2018-06-17T16:47:19.151Z,52.47
2018-06-17T16:49:50.382Z,50.33
2018-06-17T16:52:25.248Z,51.38
2018-06-17T16:54:59.857Z,48.57
2018-06-17T16:57:34.583Z,50.71
2018-06-17T17:00:08.082Z,52.19
2018-06-17T17:02:38.421Z,52.65
2018-06-17T17:05:09.089Z,52.46
2018-06-17T17:07:40.211Z,52.77
2018-06-17T17:10:09.681Z,52.57
2018-06-17T17:12:39.019Z,50.37
2018-06-17T17:15:08.804Z,50.68
2018-06-17T17:17:38.442Z,52.34
2018-06-17T17:20:07.857Z,51.74
2018-06-17T17:22:38.955Z,52.90
2018-06-17T17:25:08.359Z,53.10
2018-06-17T17:27:37.950Z,52.67
2018-06-17T17:30:07.365Z,53.42
2018-06-17T17:32:43.166Z,53.46
2018-06-17T17:37:24.816Z,55.22
2018-06-17T17:39:59.249Z,55.80
2018-06-17T17:42:28.816Z,58.12
2018-06-17T17:45:03.600Z,59.65
2018-06-17T17:47:35.033Z,61.27
2018-06-17T17:50:04.520Z,61.19
2018-06-17T17:52:35.046Z,59.87
2018-06-17T17:55:07.162Z,60.71
2018-06-17T17:57:39.161Z,61.73
2018-06-17T18:00:10.505Z,60.96
2018-06-17T18:02:42.037Z,62.49
2018-06-17T18:05:12.981Z,61.84
2018-06-17T18:07:44.727Z,61.37
2018-06-17T18:10:15.283Z,60.69
2018-06-17T18:12:45.419Z,60.96
2018-06-17T18:15:15.448Z,62.64
2018-06-17T18:17:45.213Z,64.03
2018-06-17T18:20:16.002Z,63.89
2018-06-17T18:22:46.840Z,65.66
2018-06-17T18:25:21.666Z,63.24
2018-06-17T18:27:56.757Z,65.40
2018-06-17T18:30:31.972Z,65.89
2018-06-17T18:33:09.071Z,64.54
2018-06-17T18:35:45.965Z,64.62
2018-06-17T18:38:17.015Z,65.82
2018-06-17T18:40:46.718Z,66.56
2018-06-17T18:43:17.433Z,66.55
2018-06-17T18:45:49.882Z,67.60
2018-06-17T18:48:20.465Z,64.73
2018-06-17T18:50:50.647Z,64.45
2018-06-17T18:53:26.338Z,65.46
2018-06-17T18:55:56.295Z,66.83
2018-06-17T18:58:27.029Z,62.02
2018-06-17T19:00:57.108Z,65.77
2018-06-17T19:03:27.591Z,66.49
2018-06-17T19:05:57.913Z,67.17
2018-06-17T19:08:32.410Z,65.95
2018-06-17T19:11:07.728Z,65.25
2018-06-17T19:13:42.449Z,67.21
2018-06-17T19:16:18.622Z,68.04
2018-06-17T19:18:50.275Z,69.68
2018-06-17T19:21:21.025Z,70.23
2018-06-17T19:23:52.832Z,70.63
2018-06-17T19:26:23.616Z,70.93
2018-06-17T19:28:52.724Z,70.34
2018-06-17T19:31:23.320Z,68.78
2018-06-17T19:33:52.744Z,67.93
2018-06-17T19:36:22.553Z,67.84
2018-06-17T19:38:51.989Z,68.93
2018-06-17T19:41:22.548Z,71.81
2018-06-17T19:43:53.572Z,69.58
2018-06-17T19:46:22.796Z,63.13
2018-06-17T19:48:54.148Z,64.02
2018-06-17T19:51:29.438Z,69.55
2018-06-17T19:54:03.854Z,70.78
2018-06-17T19:56:39.653Z,71.89
2018-06-17T19:59:15.783Z,73.47
2018-06-17T20:01:45.568Z,72.01
2018-06-17T20:04:15.498Z,72.04
2018-06-17T20:06:45.667Z,71.70
2018-06-17T20:09:15.891Z,66.02
2018-06-17T20:11:46.664Z,66.20
2018-06-17T20:14:17.351Z,66.93
2018-06-17T20:16:47.148Z,67.64
2018-06-17T20:19:18.331Z,67.36
2018-06-17T20:21:47.767Z,68.16
2018-06-17T20:24:17.327Z,68.76
2018-06-17T20:26:46.913Z,69.57
2018-06-17T20:29:18.193Z,70.42
2018-06-17T20:31:52.899Z,68.88
2018-06-17T20:34:28.689Z,69.11
2018-06-17T20:37:03.803Z,68.94
2018-06-17T20:40:38.641Z,69.74
2018-06-17T20:43:13.839Z,70.94
2018-06-17T20:45:43.530Z,71.94
2018-06-17T20:48:13.304Z,71.43
2018-06-17T20:50:44.952Z,71.63
2018-06-17T20:53:14.756Z,73.00
2018-06-17T20:55:43.766Z,71.89
2018-06-17T20:58:14.882Z,72.57
2018-06-17T21:00:44.511Z,72.64
2018-06-17T21:03:14.617Z,70.85
2018-06-17T21:05:43.978Z,70.76
2018-06-17T21:08:13.616Z,70.05
2018-06-17T21:10:44.723Z,68.17
2018-06-17T21:13:15.217Z,69.44
2018-06-17T21:15:45.498Z,67.79
2018-06-17T21:18:20.623Z,67.62
2018-06-17T21:20:55.894Z,67.43
2018-06-17T21:24:33.360Z,70.65
2018-06-17T21:27:08.102Z,74.99
2018-06-17T21:29:39.189Z,73.71
2018-06-17T21:32:08.681Z,76.11
2018-06-17T21:34:37.934Z,77.42
2018-06-17T21:37:07.856Z,78.41
2018-06-17T21:39:39.909Z,78.28
2018-06-17T21:42:10.369Z,78.74
2018-06-17T21:44:39.657Z,79.19
2018-06-17T21:47:09.066Z,79.23
2018-06-17T21:49:38.747Z,79.79
2018-06-17T21:52:08.525Z,79.16
2018-06-17T21:54:38.494Z,79.36
2018-06-17T21:57:08.510Z,79.66
2018-06-17T21:59:38.755Z,80.04
2018-06-17T22:02:12.421Z,80.41
2018-06-17T22:04:42.427Z,80.65
2018-06-17T22:07:13.123Z,81.06
2018-06-17T22:09:48.056Z,80.34
2018-06-17T22:12:22.336Z,80.81
2018-06-17T22:14:56.909Z,80.79
2018-06-17T22:17:31.183Z,80.91
2018-06-17T22:20:00.840Z,81.00
2018-06-17T22:22:30.217Z,80.96
2018-06-17T22:25:00.150Z,80.99
2018-06-17T22:27:29.942Z,80.78
2018-06-17T22:29:59.009Z,80.79
2018-06-17T22:32:28.812Z,81.94
2018-06-17T22:34:58.871Z,81.35
2018-06-17T22:37:28.182Z,82.27
2018-06-17T22:39:57.878Z,81.46
2018-06-17T22:42:27.845Z,81.35
2018-06-17T22:44:57.679Z,80.77
2018-06-17T22:47:32.307Z,81.87
2018-06-17T22:50:02.440Z,82.04
2018-06-17T22:52:37.761Z,82.47
2018-06-17T22:55:07.265Z,83.20
2018-06-17T22:57:42.002Z,82.92
2018-06-17T23:00:18.432Z,83.17
2018-06-17T23:02:52.735Z,82.29
2018-06-17T23:05:27.090Z,82.65
2018-06-17T23:08:01.798Z,82.61
2018-06-17T23:10:31.340Z,83.75
2018-06-17T23:13:00.920Z,84.55
2018-06-17T23:15:30.212Z,83.79
2018-06-17T23:18:03.153Z,84.42
2018-06-17T23:20:34.238Z,84.54
2018-06-17T23:23:04.404Z,84.85
2018-06-17T23:25:33.761Z,84.66
2018-06-17T23:28:05.182Z,84.39
2018-06-17T23:30:34.768Z,84.65
2018-06-17T23:33:05.670Z,84.45
2018-06-17T23:35:35.179Z,84.73
2018-06-17T23:38:04.589Z,83.87
2018-06-17T23:40:33.929Z,84.56
2018-06-17T23:43:03.659Z,83.50
2018-06-17T23:45:33.058Z,84.59
2018-06-17T23:48:07.490Z,84.53
2018-06-17T23:50:41.809Z,85.49
2018-06-17T23:53:16.100Z,85.03
2018-06-17T23:55:50.972Z,85.01
2018-06-17T23:58:20.263Z,84.78
